createdAt,value
2022-10-07T00:02:09.409Z,102240.00
2022-10-07T00:04:37.170Z,102245.84
2022-10-07T00:07:04.013Z,102244.47
2022-10-07T00:09:30.928Z,102238.44
2022-10-07T00:11:57.459Z,102239.63
2022-10-07T00:14:24.002Z,102238.25
2022-10-07T00:16:50.627Z,102236.53
2022-10-07T00:19:17.209Z,102232.22
2022-10-07T00:21:43.795Z,102226.75
2022-10-07T00:24:11.285Z,102226.75
2022-10-07T00:26:38.847Z,102229.47
2022-10-07T00:29:06.911Z,102228.31
2022-10-07T00:31:35.986Z,102224.00
2022-10-07T00:34:03.903Z,102229.69
2022-10-07T00:36:33.760Z,102223.31
2022-10-07T00:39:03.723Z,102219.72
2022-10-07T00:41:45.174Z,102219.03
2022-10-07T00:44:32.739Z,102220.53
2022-10-07T00:47:20.568Z,102221.75
2022-10-07T00:50:08.594Z,102212.28
2022-10-07T00:52:39.116Z,102212.28
2022-10-07T00:55:09.933Z,102210.41
2022-10-07T00:57:38.390Z,102200.78
2022-10-07T01:00:06.854Z,102201.13
2022-10-07T01:02:34.771Z,102196.84
2022-10-07T01:05:05.010Z,102192.38
2022-10-07T01:07:32.068Z,102187.22
2022-10-07T01:10:00.455Z,102189.09
2022-10-07T01:12:46.054Z,102187.03
2022-10-07T01:15:25.799Z,102188.09
2022-10-07T01:18:01.157Z,102187.22
2022-10-07T01:20:45.375Z,102186.50
2022-10-07T01:23:36.818Z,102188.59
2022-10-07T01:26:15.217Z,102184.59
2022-10-07T01:28:59.046Z,102175.69
2022-10-07T01:31:33.470Z,102181.34
2022-10-07T01:34:01.865Z,102167.41
2022-10-07T01:36:28.598Z,102163.13
2022-10-07T01:39:02.640Z,102157.97
2022-10-07T01:41:31.466Z,102151.63
2022-10-07T01:44:00.804Z,102155.38
2022-10-07T01:46:28.159Z,102157.97
2022-10-07T01:48:54.899Z,102150.56
2022-10-07T01:51:25.398Z,102152.63
2022-10-07T01:54:11.467Z,102139.25
2022-10-07T01:57:02.478Z,102142.34
2022-10-07T01:59:46.144Z,102139.75
2022-10-07T02:02:33.544Z,102133.25
2022-10-07T02:05:24.040Z,102134.41
2022-10-07T02:08:11.325Z,102137.34
2022-10-07T02:10:49.519Z,102136.09
2022-10-07T02:13:24.277Z,102121.88
2022-10-07T02:16:05.833Z,102116.56
2022-10-07T02:18:36.562Z,102114.84
2022-10-07T02:21:07.113Z,102116.56
2022-10-07T02:23:36.949Z,102112.44
2022-10-07T02:26:05.663Z,102109.00
2022-10-07T02:28:35.636Z,102105.56
2022-10-07T02:31:04.261Z,102111.06
2022-10-07T02:33:33.827Z,102110.19
2022-10-07T02:36:04.533Z,102099.22
2022-10-07T02:38:31.143Z,102097.34
2022-10-07T02:41:31.319Z,102099.22
2022-10-07T02:44:06.954Z,102096.97
2022-10-07T02:46:39.980Z,102102.78
2022-10-07T02:49:10.792Z,102103.13
2022-10-07T02:51:43.012Z,102092.31
2022-10-07T02:54:09.481Z,102091.97
2022-10-07T02:56:40.203Z,102093.66
2022-10-07T02:59:09.735Z,102091.25
2022-10-07T03:01:42.262Z,102088.72
2022-10-07T03:04:09.062Z,102082.50
2022-10-07T03:06:36.265Z,102088.00
2022-10-07T03:09:03.860Z,102090.91
2022-10-07T03:11:30.338Z,102085.59
2022-10-07T03:13:57.251Z,102085.44
2022-10-07T03:16:23.771Z,102085.44
2022-10-07T03:18:50.927Z,102084.56
2022-10-07T03:21:17.325Z,102076.03
2022-10-07T03:23:43.712Z,102081.34
2022-10-07T03:26:10.171Z,102072.94
2022-10-07T03:28:37.523Z,102066.59
2022-10-07T03:31:10.073Z,102070.19
2022-10-07T03:33:37.373Z,102075.88
2022-10-07T03:36:05.798Z,102071.75
2022-10-07T03:38:33.055Z,102063.66
2022-10-07T03:41:01.853Z,102064.69
2022-10-07T03:43:28.621Z,102060.25
2022-10-07T03:45:56.852Z,102061.25
2022-10-07T03:48:23.269Z,102053.72
2022-10-07T03:50:54.720Z,102061.22
2022-10-07T03:53:22.142Z,102056.06
2022-10-07T03:55:48.491Z,102053.66
2022-10-07T03:58:14.963Z,102054.31
2022-10-07T04:00:41.409Z,102059.78
2022-10-07T04:03:08.360Z,102058.63
2022-10-07T04:05:36.291Z,102055.38
2022-10-07T04:08:04.860Z,102052.31
2022-10-07T04:10:32.425Z,102049.25
2022-10-07T04:12:58.908Z,102049.78
2022-10-07T04:15:25.932Z,102048.56
2022-10-07T04:17:59.313Z,102048.25
2022-10-07T04:20:28.524Z,102046.53
2022-10-07T04:22:57.305Z,102037.63
2022-10-07T04:25:35.663Z,102035.75
2022-10-07T04:28:07.922Z,102041.06
2022-10-07T04:30:40.193Z,102036.97
2022-10-07T04:33:08.091Z,102039.72
2022-10-07T04:35:37.756Z,102031.16
2022-10-07T04:38:05.852Z,102019.00
2022-10-07T04:40:32.277Z,102022.41
2022-10-07T04:43:17.208Z,102020.38
2022-10-07T04:45:43.611Z,102025.84
2022-10-07T04:48:10.009Z,102025.84
2022-10-07T04:50:38.643Z,102020.38
2022-10-07T04:53:10.686Z,102022.97
2022-10-07T04:55:38.735Z,102022.97
2022-10-07T04:58:05.529Z,102017.47
2022-10-07T05:00:32.802Z,102014.53
2022-10-07T05:02:59.272Z,102013.69
2022-10-07T05:05:27.181Z,102008.06
2022-10-07T05:07:54.388Z,102004.44
2022-10-07T05:10:21.538Z,102019.16
2022-10-07T05:12:50.432Z,102000.69
2022-10-07T05:15:18.964Z,102002.06
2022-10-07T05:17:45.645Z,102006.16
2022-10-07T05:20:12.406Z,102001.03
2022-10-07T05:22:39.444Z,102008.94
2022-10-07T05:25:06.419Z,102014.25
2022-10-07T05:27:32.788Z,102005.00
2022-10-07T05:29:59.156Z,102010.31
2022-10-07T05:32:25.959Z,102007.22
2022-10-07T05:34:52.690Z,102008.28
2022-10-07T05:37:19.055Z,102011.88
2022-10-07T05:39:46.494Z,102006.19
2022-10-07T05:42:13.644Z,102007.22
2022-10-07T05:44:40.048Z,102007.22
2022-10-07T05:47:06.448Z,101996.25
2022-10-07T05:49:32.886Z,102000.03
2022-10-07T05:51:59.245Z,102004.31
2022-10-07T05:54:25.701Z,101992.13
2022-10-07T05:56:52.712Z,101990.25
2022-10-07T05:59:20.446Z,101988.38
2022-10-07T06:01:46.937Z,101989.59
2022-10-07T06:04:13.794Z,101987.53
2022-10-07T06:06:40.159Z,101989.91
2022-10-07T06:09:25.560Z,101982.41
2022-10-07T06:12:10.265Z,101985.66
2022-10-07T06:14:36.696Z,101975.34
2022-10-07T06:17:04.655Z,101972.25
2022-10-07T06:19:31.186Z,101975.34
2022-10-07T06:21:57.816Z,101980.53
2022-10-07T06:24:25.415Z,101984.50
2022-10-07T06:26:55.281Z,101991.34
2022-10-07T06:29:21.959Z,101976.25
2022-10-07T06:31:48.374Z,101985.66
2022-10-07T06:34:14.766Z,101991.16
2022-10-07T06:36:41.165Z,101984.81
2022-10-07T06:39:07.695Z,101987.72
2022-10-07T06:41:34.746Z,101985.31
2022-10-07T06:44:01.178Z,101979.97
2022-10-07T06:46:27.776Z,101978.44
2022-10-07T06:48:54.237Z,101984.44
2022-10-07T06:51:21.586Z,101974.81
2022-10-07T06:53:52.257Z,101974.97
2022-10-07T06:56:18.686Z,101975.47
2022-10-07T06:58:45.112Z,101973.38
2022-10-07T07:01:12.802Z,101979.38
2022-10-07T07:03:40.053Z,101983.50
2022-10-07T07:06:08.129Z,101977.84
2022-10-07T07:08:35.458Z,101975.75
2022-10-07T07:11:27.087Z,101973.16
2022-10-07T07:13:54.250Z,101971.75
2022-10-07T07:16:20.775Z,101976.38
2022-10-07T07:18:51.914Z,101983.91
2022-10-07T07:21:18.436Z,101972.56
2022-10-07T07:23:45.636Z,101965.31
2022-10-07T07:26:12.483Z,101978.31
2022-10-07T07:28:39.330Z,101977.13
2022-10-07T07:31:09.347Z,101978.88
2022-10-07T07:33:39.740Z,101985.97
2022-10-07T07:36:15.935Z,101986.34
2022-10-07T07:38:53.665Z,101980.00
2022-10-07T07:41:22.900Z,101981.88
2022-10-07T07:43:51.111Z,101976.06
2022-10-07T07:46:19.384Z,101970.72
2022-10-07T07:48:46.430Z,101957.09
2022-10-07T07:51:13.966Z,101970.19
2022-10-07T07:53:40.398Z,101966.22
2022-10-07T07:56:07.097Z,101959.72
2022-10-07T07:58:34.730Z,101964.47
2022-10-07T08:01:04.045Z,101952.09
2022-10-07T08:03:30.497Z,101956.69
2022-10-07T08:06:00.644Z,101954.81
2022-10-07T08:08:27.311Z,101956.72
2022-10-07T08:10:53.691Z,101951.44
2022-10-07T08:13:20.438Z,101956.19
2022-10-07T08:15:46.822Z,101961.38
2022-10-07T08:18:13.271Z,101956.56
2022-10-07T08:20:39.678Z,101948.97
2022-10-07T08:23:06.727Z,101956.19
2022-10-07T08:25:33.527Z,101949.28
2022-10-07T08:27:59.947Z,101951.66
2022-10-07T08:30:26.535Z,101950.63
2022-10-07T08:32:54.194Z,101952.69
2022-10-07T08:35:22.176Z,101948.53
2022-10-07T08:37:48.825Z,101941.97
2022-10-07T08:40:17.226Z,101923.69
2022-10-07T08:42:44.762Z,101923.97
2022-10-07T08:45:31.742Z,101921.88
2022-10-07T08:48:05.590Z,101920.56
2022-10-07T08:50:58.321Z,101923.25
2022-10-07T08:53:31.500Z,101918.41
2022-10-07T08:56:18.389Z,101917.03
2022-10-07T08:58:55.981Z,101917.91
2022-10-07T09:01:59.925Z,101905.28
2022-10-07T09:04:47.596Z,101909.56
2022-10-07T09:07:19.956Z,101901.53
2022-10-07T09:09:53.697Z,101900.03
2022-10-07T09:12:25.662Z,101896.59
2022-10-07T09:14:56.945Z,101898.78
2022-10-07T09:17:34.863Z,101893.28
2022-10-07T09:20:16.538Z,101892.72
2022-10-07T09:22:48.628Z,101889.56
2022-10-07T09:25:20.490Z,101894.13
2022-10-07T09:27:48.970Z,101886.16
2022-10-07T09:30:16.010Z,101879.94
2022-10-07T09:32:45.725Z,101884.84
2022-10-07T09:35:18.247Z,101875.22
2022-10-07T09:38:03.645Z,101866.75
2022-10-07T09:40:33.046Z,101854.22
2022-10-07T09:43:00.435Z,101856.56
2022-10-07T09:45:31.357Z,101857.97
2022-10-07T09:48:07.484Z,101840.72
2022-10-07T09:50:37.314Z,101832.59
2022-10-07T09:53:16.096Z,101836.38
2022-10-07T09:55:43.575Z,101830.38
2022-10-07T09:58:20.916Z,101821.75
2022-10-07T10:00:50.440Z,101817.59
2022-10-07T10:03:18.255Z,101812.72
2022-10-07T10:05:59.954Z,101820.19
2022-10-07T10:08:33.998Z,101814.22
2022-10-07T10:11:02.957Z,101820.63
2022-10-07T10:13:38.341Z,101805.66
2022-10-07T10:16:26.145Z,101798.16
2022-10-07T10:19:04.821Z,101797.09
2022-10-07T10:21:40.759Z,101791.94
2022-10-07T10:24:15.741Z,101787.66
2022-10-07T10:26:55.938Z,101785.91
2022-10-07T10:29:46.800Z,101781.66
2022-10-07T10:32:25.738Z,101783.41
2022-10-07T10:35:04.608Z,101766.84
2022-10-07T10:37:40.282Z,101759.97
2022-10-07T10:40:37.291Z,101745.94
2022-10-07T10:43:22.583Z,101750.78
2022-10-07T10:46:16.393Z,101748.94
2022-10-07T10:48:53.354Z,101747.06
2022-10-07T10:51:44.455Z,101737.13
2022-10-07T10:54:48.786Z,101733.53
2022-10-07T10:57:43.065Z,101720.09
2022-10-07T11:00:11.025Z,101705.78
2022-10-07T11:02:37.469Z,101706.56
2022-10-07T11:05:17.365Z,101704.66
2022-10-07T11:08:24.147Z,101688.06
2022-10-07T11:10:58.979Z,101693.53
2022-10-07T11:13:49.036Z,101679.97
2022-10-07T11:16:30.941Z,101665.75
2022-10-07T11:19:28.543Z,101665.88
2022-10-07T11:21:58.040Z,101657.00
2022-10-07T11:24:44.403Z,101636.94
2022-10-07T11:27:18.640Z,101640.09
2022-10-07T11:29:55.196Z,101633.06
2022-10-07T11:32:31.049Z,101628.97
2022-10-07T11:35:32.038Z,101626.03
2022-10-07T11:38:14.576Z,101622.47
2022-10-07T11:40:57.628Z,101606.44
2022-10-07T11:43:30.693Z,101594.97
2022-10-07T11:46:11.641Z,101603.09
2022-10-07T11:48:49.881Z,101599.63
2022-10-07T11:51:23.843Z,101585.13
2022-10-07T11:53:54.012Z,101583.59
2022-10-07T11:56:26.540Z,101575.72
2022-10-07T11:59:01.628Z,101573.31
2022-10-07T12:01:30.995Z,101559.09
2022-10-07T12:04:22.190Z,101557.63
2022-10-07T12:07:26.050Z,101556.75
2022-10-07T12:10:04.772Z,101547.88
2022-10-07T12:12:47.240Z,101541.28
2022-10-07T12:15:34.621Z,101530.31
2022-10-07T12:18:06.953Z,101524.25
2022-10-07T12:20:33.463Z,101518.81
2022-10-07T12:23:26.037Z,101513.16
2022-10-07T12:25:53.470Z,101502.16
2022-10-07T12:28:40.212Z,101499.66
2022-10-07T12:31:32.407Z,101495.78
2022-10-07T12:34:09.824Z,101484.88
2022-10-07T12:36:39.116Z,101470.41
2022-10-07T12:39:09.625Z,101459.28
2022-10-07T12:41:39.726Z,101458.78
2022-10-07T12:44:40.640Z,101450.13
2022-10-07T12:47:24.286Z,101442.00
2022-10-07T12:49:58.962Z,101434.72
2022-10-07T12:52:26.830Z,101438.38
2022-10-07T12:55:34.532Z,101415.03
2022-10-07T12:58:25.358Z,101431.06
2022-10-07T13:01:23.437Z,101410.56
2022-10-07T13:04:34.792Z,101403.53
2022-10-07T13:07:28.933Z,101395.91
2022-10-07T13:10:15.746Z,101397.56
2022-10-07T13:12:50.884Z,101387.44
2022-10-07T13:15:41.332Z,101380.94
2022-10-07T13:18:28.300Z,101377.25
2022-10-07T13:21:10.552Z,101364.28
2022-10-07T13:23:37.269Z,101353.06
2022-10-07T13:26:04.044Z,101358.16
2022-10-07T13:28:44.902Z,101351.94
2022-10-07T13:31:28.188Z,101345.38
2022-10-07T13:33:56.751Z,101340.59
2022-10-07T13:36:41.924Z,101337.22
2022-10-07T13:39:23.089Z,101334.91
2022-10-07T13:41:55.396Z,101334.84
2022-10-07T13:44:25.577Z,101323.56
2022-10-07T13:46:58.538Z,101318.50
2022-10-07T13:49:28.357Z,101317.69
2022-10-07T13:51:58.268Z,101311.81
2022-10-07T13:54:30.226Z,101317.41
2022-10-07T13:56:57.345Z,101319.69
2022-10-07T13:59:24.037Z,101312.63
2022-10-07T14:01:56.386Z,101315.53
2022-10-07T14:04:25.639Z,101321.13
2022-10-07T14:07:28.412Z,101312.06
2022-10-07T14:10:00.880Z,101304.72
2022-10-07T14:12:33.124Z,101293.38
2022-10-07T14:15:03.158Z,101289.56
2022-10-07T14:17:38.639Z,101295.75
2022-10-07T14:20:17.382Z,101275.44
2022-10-07T14:22:48.736Z,101275.50
2022-10-07T14:25:21.958Z,101271.25
2022-10-07T14:27:57.500Z,101273.22
2022-10-07T14:30:25.980Z,101259.03
2022-10-07T14:33:33.958Z,101265.19
2022-10-07T14:36:16.125Z,101259.97
2022-10-07T14:38:44.688Z,101253.59
2022-10-07T14:41:11.732Z,101254.78
2022-10-07T14:43:40.283Z,101246.34
2022-10-07T14:46:08.948Z,101243.19
2022-10-07T14:48:35.928Z,101241.28
2022-10-07T14:51:02.556Z,101238.03
2022-10-07T14:53:29.167Z,101242.81
2022-10-07T14:55:55.936Z,101234.78
2022-10-07T14:58:22.342Z,101229.78
2022-10-07T15:00:49.239Z,101233.75
2022-10-07T15:03:15.693Z,101229.28
2022-10-07T15:05:42.225Z,101229.84
2022-10-07T15:08:11.830Z,101228.16
2022-10-07T15:10:41.245Z,101216.09
2022-10-07T15:13:13.276Z,101207.38
2022-10-07T15:15:44.857Z,101213.00
2022-10-07T15:18:11.735Z,101208.78
2022-10-07T15:20:39.666Z,101204.00
2022-10-07T15:23:08.042Z,101203.72
2022-10-07T15:25:35.587Z,101204.81
2022-10-07T15:28:02.114Z,101203.44
2022-10-07T15:30:29.478Z,101202.84
2022-10-07T15:32:57.675Z,101204.81
2022-10-07T15:35:27.735Z,101203.66
2022-10-07T15:37:54.228Z,101201.09
2022-10-07T15:40:20.989Z,101201.09
2022-10-07T15:42:47.724Z,101199.94
2022-10-07T15:45:14.457Z,101194.34
2022-10-07T15:47:40.925Z,101192.94
2022-10-07T15:50:08.003Z,101194.31
2022-10-07T15:52:34.560Z,101197.09
2022-10-07T15:55:07.377Z,101187.53
2022-10-07T15:57:34.490Z,101187.78
2022-10-07T16:00:02.326Z,101191.94
2022-10-07T16:02:28.866Z,101188.31
2022-10-07T16:04:55.354Z,101193.56
2022-10-07T16:07:21.833Z,101183.44
2022-10-07T16:09:48.218Z,101185.63
2022-10-07T16:12:14.714Z,101180.22
2022-10-07T16:14:41.153Z,101179.06
2022-10-07T16:17:08.141Z,101184.84
2022-10-07T16:19:34.573Z,101190.44
2022-10-07T16:22:01.142Z,101195.41
2022-10-07T16:24:30.083Z,101192.22
2022-10-07T16:27:00.607Z,101191.81
2022-10-07T16:29:45.441Z,101190.00
2022-10-07T16:32:11.945Z,101193.13
2022-10-07T16:34:40.494Z,101204.66
2022-10-07T16:37:06.924Z,101195.13
2022-10-07T16:39:33.309Z,101205.59
2022-10-07T16:41:59.930Z,101202.53
2022-10-07T16:44:27.710Z,101203.91
2022-10-07T16:46:56.969Z,101206.28
2022-10-07T16:49:25.789Z,101200.72
2022-10-07T16:51:53.052Z,101200.09
2022-10-07T16:54:20.293Z,101209.28
2022-10-07T16:56:49.977Z,101210.91
2022-10-07T16:59:24.459Z,101210.88
2022-10-07T17:01:55.324Z,101206.09
2022-10-07T17:04:22.501Z,101208.56
2022-10-07T17:06:49.398Z,101214.41
2022-10-07T17:09:17.349Z,101217.69
2022-10-07T17:11:43.973Z,101215.41
2022-10-07T17:14:16.145Z,101212.88
2022-10-07T17:16:48.661Z,101205.72
2022-10-07T17:19:18.065Z,101218.44
2022-10-07T17:21:46.244Z,101224.19
2022-10-07T17:24:13.190Z,101221.88
2022-10-07T17:26:40.450Z,101221.56
2022-10-07T17:29:09.723Z,101229.00
2022-10-07T17:31:39.128Z,101222.94
2022-10-07T17:34:06.658Z,101234.81
2022-10-07T17:36:34.201Z,101224.50
2022-10-07T17:39:01.345Z,101231.28
2022-10-07T17:41:30.423Z,101221.44
2022-10-07T17:43:58.704Z,101219.91
2022-10-07T17:46:27.354Z,101214.53
2022-10-07T17:48:56.189Z,101222.34
2022-10-07T17:51:24.501Z,101219.00
2022-10-07T17:53:51.120Z,101212.69
2022-10-07T17:56:18.084Z,101220.00
2022-10-07T17:58:47.053Z,101210.69
2022-10-07T18:01:16.287Z,101219.66
2022-10-07T18:03:43.453Z,101219.94
2022-10-07T18:06:11.367Z,101229.56
2022-10-07T18:08:41.327Z,101233.00
2022-10-07T18:11:08.954Z,101224.53
2022-10-07T18:13:53.743Z,101227.97
2022-10-07T18:16:21.037Z,101228.03
2022-10-07T18:18:52.702Z,101231.03
2022-10-07T18:21:20.164Z,101237.00
2022-10-07T18:23:46.569Z,101238.31
2022-10-07T18:26:15.871Z,101243.84
2022-10-07T18:28:42.649Z,101229.38
2022-10-07T18:31:12.065Z,101235.34
2022-10-07T18:33:38.960Z,101228.19
2022-10-07T18:36:11.177Z,101235.22
2022-10-07T18:38:40.668Z,101238.44
2022-10-07T18:41:10.582Z,101235.72
2022-10-07T18:43:37.729Z,101229.16
2022-10-07T18:46:10.922Z,101227.91
2022-10-07T18:48:39.287Z,101220.28
2022-10-07T18:51:06.861Z,101221.13
2022-10-07T18:53:36.469Z,101218.19
2022-10-07T18:56:05.238Z,101216.50
2022-10-07T18:58:36.438Z,101216.94
2022-10-07T19:01:11.750Z,101214.38
2022-10-07T19:03:38.352Z,101217.38
2022-10-07T19:06:07.013Z,101220.75
2022-10-07T19:08:33.950Z,101213.94
2022-10-07T19:11:08.961Z,101228.59
2022-10-07T19:13:48.103Z,101220.97
2022-10-07T19:16:19.426Z,101219.25
2022-10-07T19:18:47.539Z,101222.03
2022-10-07T19:21:15.257Z,101227.56
2022-10-07T19:23:41.876Z,101216.94
2022-10-07T19:26:09.133Z,101212.06
2022-10-07T19:28:39.752Z,101218.44
2022-10-07T19:31:35.299Z,101225.47
2022-10-07T19:34:06.114Z,101215.47
2022-10-07T19:36:36.712Z,101223.78
2022-10-07T19:39:04.277Z,101223.78
2022-10-07T19:41:32.793Z,101221.41
2022-10-07T19:43:59.785Z,101225.03
2022-10-07T19:46:28.158Z,101224.84
2022-10-07T19:48:56.948Z,101225.03
2022-10-07T19:51:24.540Z,101225.88
2022-10-07T19:53:51.837Z,101221.66
2022-10-07T19:56:24.352Z,101221.22
2022-10-07T19:58:53.812Z,101225.44
2022-10-07T20:01:26.644Z,101228.00
2022-10-07T20:04:03.605Z,101227.56
2022-10-07T20:06:30.440Z,101229.25
2022-10-07T20:08:57.507Z,101226.66
2022-10-07T20:11:24.537Z,101239.41
2022-10-07T20:13:53.490Z,101237.94
2022-10-07T20:16:25.322Z,101239.41
2022-10-07T20:19:00.535Z,101238.34
2022-10-07T20:21:27.720Z,101236.63
2022-10-07T20:23:54.790Z,101226.44
2022-10-07T20:26:25.522Z,101223.22
2022-10-07T20:28:54.175Z,101233.44
2022-10-07T20:31:23.084Z,101227.69
2022-10-07T20:33:54.218Z,101229.38
2022-10-07T20:36:23.860Z,101222.34
2022-10-07T20:39:19.475Z,101222.34
2022-10-07T20:42:04.571Z,101221.25
2022-10-07T20:44:31.045Z,101220.81
2022-10-07T20:46:57.703Z,101217.63
2022-10-07T20:49:28.517Z,101221.00
2022-10-07T20:52:01.835Z,101223.31
2022-10-07T20:54:30.078Z,101230.75
2022-10-07T20:56:57.806Z,101235.47
2022-10-07T20:59:25.812Z,101229.28
2022-10-07T21:01:53.728Z,101228.69
2022-10-07T21:04:21.359Z,101229.94
2022-10-07T21:06:52.322Z,101231.25
2022-10-07T21:09:19.741Z,101231.25
2022-10-07T21:11:47.706Z,101234.22
2022-10-07T21:14:14.977Z,101225.31
2022-10-07T21:16:42.200Z,101225.78
2022-10-07T21:19:08.785Z,101221.50
2022-10-07T21:21:35.495Z,101230.03
2022-10-07T21:24:01.928Z,101227.94
2022-10-07T21:26:28.364Z,101228.97
2022-10-07T21:28:54.820Z,101219.84
2022-10-07T21:31:22.477Z,101221.34
2022-10-07T21:33:50.526Z,101221.97
2022-10-07T21:36:19.117Z,101218.75
2022-10-07T21:38:48.215Z,101213.00
2022-10-07T21:41:18.764Z,101214.72
2022-10-07T21:43:53.073Z,101213.84
2022-10-07T21:46:20.723Z,101215.97
2022-10-07T21:48:47.493Z,101204.91
2022-10-07T21:51:13.945Z,101208.53
2022-10-07T21:53:40.660Z,101196.22
2022-10-07T21:56:11.017Z,101210.44
2022-10-07T21:58:37.613Z,101210.66
2022-10-07T22:01:05.616Z,101213.41
2022-10-07T22:03:32.235Z,101207.28
2022-10-07T22:06:03.128Z,101206.63
2022-10-07T22:08:35.144Z,101212.16
2022-10-07T22:11:18.556Z,101209.41
2022-10-07T22:13:55.069Z,101208.78
2022-10-07T22:16:22.964Z,101202.63
2022-10-07T22:18:52.119Z,101209.63
2022-10-07T22:21:21.524Z,101201.78
2022-10-07T22:23:50.524Z,101205.19
2022-10-07T22:26:18.864Z,101203.72
2022-10-07T22:28:49.628Z,101195.47
2022-10-07T22:31:16.708Z,101201.91
2022-10-07T22:33:44.186Z,101204.69
2022-10-07T22:36:12.934Z,101209.41
2022-10-07T22:38:43.188Z,101203.91
2022-10-07T22:41:13.727Z,101198.63
2022-10-07T22:43:44.207Z,101195.91
2022-10-07T22:46:16.383Z,101198.91
2022-10-07T22:48:43.539Z,101194.69
2022-10-07T22:51:14.484Z,101195.53
2022-10-07T22:53:48.752Z,101199.38
2022-10-07T22:56:17.585Z,101196.88
2022-10-07T22:58:53.345Z,101193.50
2022-10-07T23:01:21.547Z,101196.91
2022-10-07T23:03:48.165Z,101203.06
2022-10-07T23:06:17.697Z,101199.88
2022-10-07T23:08:44.846Z,101204.34
2022-10-07T23:11:16.500Z,101203.69
2022-10-07T23:13:43.288Z,101203.91
2022-10-07T23:16:12.795Z,101208.19
2022-10-07T23:18:42.563Z,101213.44
2022-10-07T23:21:13.052Z,101210.47
2022-10-07T23:23:41.406Z,101209.63
2022-10-07T23:26:12.764Z,101220.22
2022-10-07T23:28:40.611Z,101220.22
2022-10-07T23:31:09.871Z,101211.97
2022-10-07T23:33:37.486Z,101214.28
2022-10-07T23:36:06.519Z,101207.69
2022-10-07T23:38:33.532Z,101204.94
2022-10-07T23:41:01.189Z,101199.19
2022-10-07T23:43:31.180Z,101196.00
2022-10-07T23:45:57.812Z,101204.47
2022-10-07T23:48:24.305Z,101198.53
2022-10-07T23:50:52.501Z,101193.25
2022-10-07T23:53:20.657Z,101192.59
2022-10-07T23:55:48.742Z,101193.88
2022-10-07T23:58:16.281Z,101187.06
